createdAt,value
2022-12-22T00:01:50.230Z,77.35
2022-12-22T00:04:17.727Z,76.53
2022-12-22T00:06:44.850Z,76.37
2022-12-22T00:09:11.787Z,75.98
2022-12-22T00:11:39.293Z,75.82
2022-12-22T00:14:08.822Z,75.87
2022-12-22T00:16:38.543Z,76.04
2022-12-22T00:19:13.733Z,76.42
2022-12-22T00:21:40.893Z,77.19
2022-12-22T00:24:08.525Z,75.68
2022-12-22T00:26:36.481Z,75.90
2022-12-22T00:29:04.238Z,76.44
2022-12-22T00:31:31.347Z,76.11
2022-12-22T00:33:59.967Z,76.09
2022-12-22T00:36:28.065Z,76.13
2022-12-22T00:38:54.916Z,76.75
2022-12-22T00:41:21.750Z,77.41
2022-12-22T00:43:48.790Z,76.87
2022-12-22T00:46:20.824Z,77.57
2022-12-22T00:48:49.326Z,76.93
2022-12-22T00:51:18.984Z,76.47
2022-12-22T00:53:46.004Z,77.58
2022-12-22T00:56:12.882Z,77.31
2022-12-22T00:58:39.825Z,78.43
2022-12-22T01:01:06.925Z,78.69
2022-12-22T01:03:33.758Z,79.70
2022-12-22T01:06:03.285Z,79.75
2022-12-22T01:08:32.443Z,79.79
2022-12-22T01:10:59.471Z,80.35
2022-12-22T01:13:27.584Z,80.36
2022-12-22T01:15:54.420Z,79.38
2022-12-22T01:18:21.447Z,80.00
2022-12-22T01:20:48.420Z,80.69
2022-12-22T01:23:15.253Z,80.25
2022-12-22T01:25:43.584Z,80.38
2022-12-22T01:28:14.901Z,80.52
2022-12-22T01:30:42.663Z,80.73
2022-12-22T01:33:12.860Z,80.18
2022-12-22T01:35:40.312Z,80.55
2022-12-22T01:38:07.353Z,82.18
2022-12-22T01:40:34.407Z,82.80
2022-12-22T01:43:02.693Z,83.84
2022-12-22T01:45:35.363Z,83.54
2022-12-22T01:48:02.192Z,84.73
2022-12-22T01:50:36.540Z,83.79
2022-12-22T01:53:08.311Z,84.76
2022-12-22T01:55:35.172Z,85.95
2022-12-22T01:58:04.765Z,85.31
2022-12-22T02:00:31.791Z,85.36
2022-12-22T02:03:01.059Z,86.72
2022-12-22T02:05:29.275Z,86.91
2022-12-22T02:08:13.956Z,86.31
2022-12-22T02:11:04.904Z,86.36
2022-12-22T02:14:03.641Z,86.82
2022-12-22T02:16:44.798Z,85.75
2022-12-22T02:19:29.905Z,86.86
2022-12-22T02:22:09.953Z,86.05
2022-12-22T02:24:46.024Z,86.25
2022-12-22T02:27:16.400Z,85.78
2022-12-22T02:29:51.748Z,85.61
2022-12-22T02:32:18.657Z,86.57
2022-12-22T02:34:45.455Z,86.01
2022-12-22T02:37:25.400Z,86.50
2022-12-22T02:40:02.758Z,86.42
2022-12-22T02:42:39.603Z,86.65
2022-12-22T02:45:24.525Z,86.20
2022-12-22T02:48:04.138Z,86.24
2022-12-22T02:50:40.352Z,85.94
2022-12-22T02:53:09.649Z,86.49
2022-12-22T02:55:36.593Z,86.63
2022-12-22T02:58:05.215Z,86.39
2022-12-22T03:00:32.285Z,85.86
2022-12-22T03:02:59.604Z,85.86
2022-12-22T03:05:26.667Z,85.44
2022-12-22T03:07:54.683Z,84.95
2022-12-22T03:10:21.655Z,85.38
2022-12-22T03:12:48.412Z,85.01
2022-12-22T03:15:17.017Z,84.42
2022-12-22T03:17:43.788Z,84.75
2022-12-22T03:20:11.009Z,85.30
2022-12-22T03:22:37.989Z,84.72
2022-12-22T03:25:06.291Z,84.77
2022-12-22T03:27:33.251Z,84.40
2022-12-22T03:30:00.093Z,84.98
2022-12-22T03:32:28.299Z,83.88
2022-12-22T03:34:55.289Z,83.91
2022-12-22T03:37:22.069Z,83.58
2022-12-22T03:39:49.125Z,84.36
2022-12-22T03:42:15.913Z,83.78
2022-12-22T03:44:42.697Z,84.30
2022-12-22T03:47:09.490Z,82.83
2022-12-22T03:49:37.679Z,83.07
2022-12-22T03:52:04.623Z,82.64
2022-12-22T03:54:31.607Z,83.09
2022-12-22T03:56:58.668Z,83.18
2022-12-22T03:59:25.393Z,82.44
2022-12-22T04:01:54.839Z,82.47
2022-12-22T04:04:25.431Z,82.98
2022-12-22T04:06:54.851Z,82.57
2022-12-22T04:09:21.625Z,82.40
2022-12-22T04:11:48.632Z,82.63
2022-12-22T04:14:15.464Z,82.43
2022-12-22T04:16:42.730Z,82.78
2022-12-22T04:19:09.773Z,83.56
2022-12-22T04:21:37.432Z,83.60
2022-12-22T04:24:06.921Z,82.73
2022-12-22T04:26:34.204Z,83.32
2022-12-22T04:29:01.025Z,83.19
2022-12-22T04:31:27.889Z,83.67
2022-12-22T04:33:55.102Z,82.60
2022-12-22T04:36:21.816Z,83.47
2022-12-22T04:38:48.813Z,83.45
2022-12-22T04:41:16.896Z,84.10
2022-12-22T04:43:43.666Z,85.61
2022-12-22T04:46:10.688Z,84.96
2022-12-22T04:48:38.033Z,85.13
2022-12-22T04:51:05.699Z,85.96
2022-12-22T04:53:33.322Z,86.25
2022-12-22T04:56:03.827Z,86.76
2022-12-22T04:58:33.016Z,85.14
2022-12-22T05:01:09.748Z,85.87
2022-12-22T05:03:36.633Z,88.66
2022-12-22T05:06:04.187Z,90.71
2022-12-22T05:08:31.463Z,92.43
2022-12-22T05:10:58.196Z,92.01
2022-12-22T05:13:25.656Z,91.74
2022-12-22T05:15:53.859Z,92.79
2022-12-22T05:18:20.864Z,93.03
2022-12-22T05:20:47.892Z,92.20
2022-12-22T05:23:14.848Z,90.36
2022-12-22T05:25:41.773Z,90.18
2022-12-22T05:28:08.544Z,89.65
2022-12-22T05:30:35.452Z,89.23
2022-12-22T05:33:03.669Z,87.78
2022-12-22T05:35:30.683Z,88.22
2022-12-22T05:37:57.433Z,87.49
2022-12-22T05:40:24.992Z,88.06
2022-12-22T05:42:51.696Z,88.02
2022-12-22T05:45:20.767Z,88.42
2022-12-22T05:47:50.951Z,87.65
2022-12-22T05:50:23.741Z,87.98
2022-12-22T05:52:58.763Z,87.90
2022-12-22T05:55:25.984Z,87.46
2022-12-22T05:57:52.776Z,87.57
2022-12-22T06:00:21.363Z,87.92
2022-12-22T06:02:48.237Z,88.18
2022-12-22T06:05:15.495Z,87.72
2022-12-22T06:07:44.092Z,87.04
2022-12-22T06:10:14.067Z,87.87
2022-12-22T06:12:41.883Z,86.80
2022-12-22T06:15:13.221Z,87.03
2022-12-22T06:17:44.606Z,87.10
2022-12-22T06:20:13.803Z,86.27
2022-12-22T06:22:40.794Z,86.40
2022-12-22T06:25:15.601Z,86.29
2022-12-22T06:27:46.697Z,85.82
2022-12-22T06:30:15.230Z,85.89
2022-12-22T06:32:42.488Z,86.80
2022-12-22T06:35:10.184Z,86.66
2022-12-22T06:37:37.512Z,86.44
2022-12-22T06:40:06.604Z,86.38
2022-12-22T06:42:35.233Z,87.27
2022-12-22T06:45:02.180Z,85.97
2022-12-22T06:47:29.699Z,85.84
2022-12-22T06:49:56.646Z,86.54
2022-12-22T06:52:23.398Z,88.15
2022-12-22T06:54:50.218Z,87.26
2022-12-22T06:57:17.545Z,88.27
2022-12-22T06:59:45.829Z,87.53
2022-12-22T07:02:12.946Z,86.96
2022-12-22T07:04:39.752Z,86.92
2022-12-22T07:07:06.767Z,86.94
2022-12-22T07:09:33.571Z,85.91
2022-12-22T07:12:00.491Z,86.50
2022-12-22T07:14:27.254Z,85.94
2022-12-22T07:16:55.477Z,85.67
2022-12-22T07:19:22.365Z,86.07
2022-12-22T07:23:04.383Z,86.23
2022-12-22T07:25:31.368Z,85.25
2022-12-22T07:27:58.510Z,85.19
2022-12-22T07:30:25.426Z,85.05
2022-12-22T07:32:53.584Z,83.86
2022-12-22T07:35:20.322Z,83.91
2022-12-22T07:37:48.105Z,82.76
2022-12-22T07:40:16.089Z,82.56
2022-12-22T07:42:43.948Z,80.57
2022-12-22T07:45:11.481Z,80.45
2022-12-22T07:47:38.404Z,80.61
2022-12-22T07:50:10.112Z,78.64
2022-12-22T07:52:37.084Z,80.02
2022-12-22T07:55:04.724Z,79.01
2022-12-22T07:57:31.440Z,78.28
2022-12-22T07:59:58.220Z,78.29
2022-12-22T08:02:25.146Z,78.32
2022-12-22T08:04:52.162Z,78.46
2022-12-22T08:07:20.249Z,75.17
2022-12-22T08:09:47.125Z,75.21
2022-12-22T08:12:13.993Z,75.47
2022-12-22T08:14:41.015Z,74.95
2022-12-22T08:17:07.745Z,74.50
2022-12-22T08:19:34.491Z,73.62
2022-12-22T08:22:01.361Z,72.38
2022-12-22T08:24:29.794Z,72.27
2022-12-22T08:27:07.387Z,74.51
2022-12-22T08:29:41.111Z,76.08
2022-12-22T08:32:09.711Z,76.21
2022-12-22T08:35:04.591Z,74.21
2022-12-22T08:37:34.569Z,76.05
2022-12-22T08:40:08.205Z,75.03
2022-12-22T08:42:37.917Z,74.45
2022-12-22T08:45:06.490Z,75.06
2022-12-22T08:47:33.301Z,72.21
2022-12-22T08:50:00.369Z,72.57
2022-12-22T08:52:27.184Z,72.75
2022-12-22T08:54:54.202Z,73.44
2022-12-22T08:57:22.383Z,73.01
2022-12-22T08:59:49.221Z,72.71
2022-12-22T09:02:16.343Z,72.18
2022-12-22T09:04:43.251Z,72.50
2022-12-22T09:07:10.140Z,71.68
2022-12-22T09:09:36.993Z,72.09
2022-12-22T09:12:04.498Z,70.95
2022-12-22T09:14:33.031Z,71.66
2022-12-22T09:17:00.577Z,71.43
2022-12-22T09:19:27.392Z,71.49
2022-12-22T09:21:55.246Z,72.61
2022-12-22T09:24:22.533Z,72.87
2022-12-22T09:26:49.479Z,72.11
2022-12-22T09:29:16.455Z,73.47
2022-12-22T09:31:45.451Z,73.43
2022-12-22T09:34:17.681Z,73.62
2022-12-22T09:36:46.311Z,73.60
2022-12-22T09:39:14.194Z,73.47
2022-12-22T09:41:47.840Z,73.88
2022-12-22T09:44:23.922Z,72.29
2022-12-22T09:46:53.929Z,73.58
2022-12-22T09:49:22.185Z,73.40
2022-12-22T09:51:54.185Z,73.60
2022-12-22T09:54:22.464Z,74.33
2022-12-22T09:56:49.424Z,75.77
2022-12-22T09:59:19.557Z,76.23
2022-12-22T10:02:14.564Z,76.78
2022-12-22T10:04:56.713Z,77.81
2022-12-22T10:07:31.866Z,77.48
2022-12-22T10:10:04.257Z,77.61
2022-12-22T10:12:31.453Z,78.30
2022-12-22T10:14:58.539Z,78.05
2022-12-22T10:17:31.652Z,78.38
2022-12-22T10:20:20.800Z,77.95
2022-12-22T10:22:51.320Z,78.43
2022-12-22T10:25:45.330Z,77.98
2022-12-22T10:28:24.355Z,78.01
2022-12-22T10:31:20.140Z,77.95
2022-12-22T10:33:51.400Z,77.50
2022-12-22T10:36:25.409Z,77.58
2022-12-22T10:38:59.073Z,77.16
2022-12-22T10:41:30.917Z,77.34
2022-12-22T10:44:02.971Z,76.66
2022-12-22T10:46:37.363Z,76.36
2022-12-22T10:49:18.951Z,76.03
2022-12-22T10:51:51.869Z,75.79
2022-12-22T10:54:32.300Z,76.23
2022-12-22T10:57:02.305Z,76.25
2022-12-22T10:59:29.240Z,76.91
2022-12-22T11:02:26.112Z,77.77
2022-12-22T11:05:01.030Z,78.20
2022-12-22T11:07:32.011Z,78.23
2022-12-22T11:09:59.237Z,77.87
2022-12-22T11:12:45.676Z,77.88
2022-12-22T11:15:27.481Z,78.52
2022-12-22T11:18:13.429Z,78.39
2022-12-22T11:21:01.548Z,80.30
2022-12-22T11:23:42.058Z,80.34
2022-12-22T11:26:25.125Z,80.80
2022-12-22T11:29:20.100Z,80.09
2022-12-22T11:32:16.710Z,79.57
2022-12-22T11:35:02.655Z,79.30
2022-12-22T11:37:48.407Z,78.75
2022-12-22T11:40:30.405Z,78.25
2022-12-22T11:43:20.781Z,78.00
2022-12-22T11:46:05.645Z,78.13
2022-12-22T11:48:56.312Z,77.46
2022-12-22T11:51:48.931Z,77.12
2022-12-22T11:54:44.688Z,76.97
2022-12-22T11:57:32.557Z,76.09
2022-12-22T12:00:09.517Z,76.58
2022-12-22T12:03:37.043Z,76.12
2022-12-22T12:06:33.779Z,76.06
2022-12-22T12:09:27.858Z,76.23
2022-12-22T12:12:09.416Z,76.58
2022-12-22T12:14:51.378Z,76.61
2022-12-22T12:17:38.499Z,76.97
2022-12-22T12:20:27.763Z,76.60
2022-12-22T12:23:19.603Z,76.49
2022-12-22T12:26:00.553Z,75.70
2022-12-22T12:28:47.285Z,76.13
2022-12-22T12:31:24.432Z,76.32
2022-12-22T12:33:58.061Z,76.77
2022-12-22T12:36:40.116Z,76.57
2022-12-22T12:39:18.437Z,76.60
2022-12-22T12:42:01.322Z,76.75
2022-12-22T12:44:34.865Z,75.72
2022-12-22T12:47:23.724Z,76.75
2022-12-22T12:50:34.787Z,75.89
2022-12-22T12:53:09.154Z,74.65
2022-12-22T12:56:06.598Z,76.49
2022-12-22T12:59:03.721Z,77.92
2022-12-22T13:01:58.717Z,78.45
2022-12-22T13:05:26.280Z,77.95
2022-12-22T13:08:19.689Z,78.13
2022-12-22T13:11:04.691Z,78.68
2022-12-22T13:13:50.538Z,79.71
2022-12-22T13:16:36.736Z,80.23
2022-12-22T13:19:18.962Z,80.90
2022-12-22T13:21:54.951Z,81.69
2022-12-22T13:24:29.894Z,82.14
2022-12-22T13:27:05.527Z,82.92
2022-12-22T13:33:38.864Z,83.62
2022-12-22T13:36:15.643Z,83.56
2022-12-22T13:38:43.162Z,83.57
2022-12-22T13:41:24.710Z,84.09
2022-12-22T13:44:02.532Z,83.72
2022-12-22T13:46:32.530Z,83.29
2022-12-22T13:48:59.716Z,83.31
2022-12-22T13:51:30.425Z,83.22
2022-12-22T13:54:12.365Z,82.81
2022-12-22T13:56:45.590Z,82.57
2022-12-22T13:59:28.316Z,82.02
2022-12-22T14:02:00.239Z,82.05
2022-12-22T14:04:28.283Z,81.93
2022-12-22T14:06:55.581Z,82.36
2022-12-22T14:09:25.067Z,82.63
2022-12-22T14:12:03.604Z,82.94
2022-12-22T14:14:36.175Z,82.90
2022-12-22T14:17:04.519Z,83.31
2022-12-22T14:19:37.138Z,83.29
2022-12-22T14:22:11.139Z,83.68
2022-12-22T14:24:46.004Z,83.77
2022-12-22T14:27:26.607Z,82.88
2022-12-22T14:29:54.552Z,82.88
2022-12-22T14:32:42.818Z,82.65
2022-12-22T14:35:25.734Z,82.49
2022-12-22T14:37:55.832Z,81.78
2022-12-22T14:40:31.916Z,81.97
2022-12-22T14:43:03.900Z,81.88
2022-12-22T14:45:31.346Z,81.23
2022-12-22T14:47:58.145Z,81.13
2022-12-22T14:50:28.725Z,81.30
2022-12-22T14:53:01.907Z,81.27
2022-12-22T14:56:27.349Z,80.96
2022-12-22T14:59:21.716Z,81.26
2022-12-22T15:02:22.632Z,81.72
2022-12-22T15:08:38.783Z,82.07
2022-12-22T15:11:45.207Z,81.43
2022-12-22T15:14:20.153Z,81.88
2022-12-22T15:16:49.996Z,82.20
2022-12-22T15:19:26.316Z,82.07
2022-12-22T15:21:55.188Z,82.38
2022-12-22T15:24:58.075Z,82.95
2022-12-22T15:27:44.709Z,82.97
2022-12-22T15:30:19.876Z,84.14
2022-12-22T15:32:47.393Z,85.04
2022-12-22T15:35:24.512Z,84.88
2022-12-22T15:37:51.920Z,85.81
2022-12-22T15:40:22.253Z,85.26
2022-12-22T15:42:51.019Z,85.06
2022-12-22T15:45:23.425Z,84.83
2022-12-22T15:47:54.539Z,84.99
2022-12-22T15:50:27.240Z,85.20
2022-12-22T15:52:58.817Z,84.55
2022-12-22T15:55:26.883Z,84.86
2022-12-22T15:57:59.127Z,83.93
2022-12-22T16:00:29.190Z,84.04
2022-12-22T16:02:58.239Z,83.73
2022-12-22T16:05:25.338Z,83.56
2022-12-22T16:07:52.334Z,83.16
2022-12-22T16:10:25.288Z,82.48
2022-12-22T16:12:54.428Z,82.21
2022-12-22T16:15:22.484Z,81.69
2022-12-22T16:17:52.960Z,80.76
2022-12-22T16:20:38.105Z,81.17
2022-12-22T16:23:12.983Z,81.29
2022-12-22T16:25:40.379Z,81.42
2022-12-22T16:28:12.051Z,81.70
2022-12-22T16:30:43.489Z,81.70
2022-12-22T16:33:12.613Z,81.32
2022-12-22T16:35:40.543Z,80.92
2022-12-22T16:38:10.616Z,81.98
2022-12-22T16:40:46.370Z,80.77
2022-12-22T16:46:13.840Z,80.91
2022-12-22T16:48:45.963Z,80.27
2022-12-22T16:51:19.194Z,80.67
2022-12-22T16:53:46.011Z,80.77
2022-12-22T16:56:18.756Z,80.31
2022-12-22T16:58:52.040Z,81.01
2022-12-22T17:01:31.622Z,81.10
2022-12-22T17:04:09.208Z,81.09
2022-12-22T17:06:37.113Z,81.13
2022-12-22T17:09:11.051Z,81.61
2022-12-22T17:11:37.970Z,80.72
2022-12-22T17:14:10.518Z,81.04
2022-12-22T17:16:40.410Z,80.73
2022-12-22T17:19:11.114Z,81.16
2022-12-22T17:21:38.470Z,80.75
2022-12-22T17:24:05.951Z,80.90
2022-12-22T17:26:36.588Z,81.06
2022-12-22T17:29:04.971Z,80.83
2022-12-22T17:31:31.859Z,80.42
2022-12-22T17:34:15.244Z,80.88
2022-12-22T17:36:44.761Z,80.21
2022-12-22T17:39:15.065Z,79.91
2022-12-22T17:41:49.078Z,80.81
2022-12-22T17:44:50.993Z,80.61
2022-12-22T17:47:42.141Z,80.36
2022-12-22T17:50:15.646Z,79.87
2022-12-22T17:52:44.922Z,80.61
2022-12-22T17:56:06.052Z,79.57
2022-12-22T17:59:01.474Z,80.10
2022-12-22T18:04:19.228Z,79.29
2022-12-22T18:06:48.255Z,79.17
2022-12-22T18:09:39.006Z,79.00
2022-12-22T18:12:24.442Z,78.54
2022-12-22T18:14:53.257Z,79.21
2022-12-22T18:17:36.105Z,78.43
2022-12-22T18:20:06.195Z,78.53
2022-12-22T18:22:34.915Z,78.28
2022-12-22T18:25:02.668Z,77.80
2022-12-22T18:27:31.333Z,78.36
2022-12-22T18:29:59.201Z,78.24
2022-12-22T18:32:28.102Z,77.87
2022-12-22T18:34:57.157Z,78.62
2022-12-22T18:37:28.139Z,78.88
2022-12-22T18:39:58.296Z,79.22
2022-12-22T18:42:25.440Z,78.96
2022-12-22T18:44:54.303Z,79.53
2022-12-22T18:47:21.482Z,79.01
2022-12-22T18:49:48.562Z,79.59
2022-12-22T18:52:19.536Z,79.03
2022-12-22T18:54:47.102Z,79.55
2022-12-22T18:57:18.543Z,79.28
2022-12-22T18:59:46.331Z,79.10
2022-12-22T19:02:23.009Z,78.36
2022-12-22T19:04:50.918Z,79.21
2022-12-22T19:07:20.857Z,79.00
2022-12-22T19:09:48.673Z,78.44
2022-12-22T19:12:20.723Z,79.31
2022-12-22T19:14:54.667Z,79.55
2022-12-22T19:17:26.718Z,79.51
2022-12-22T19:19:53.464Z,79.86
2022-12-22T19:22:23.619Z,79.64
2022-12-22T19:32:42.375Z,79.35
2022-12-22T19:35:20.276Z,78.99
2022-12-22T19:38:20.848Z,79.41
2022-12-22T19:40:52.251Z,80.35
2022-12-22T19:43:20.116Z,80.21
2022-12-22T19:49:40.437Z,81.29
2022-12-22T19:52:09.650Z,82.28
2022-12-22T19:54:36.858Z,82.12
2022-12-22T19:57:08.427Z,82.38
2022-12-22T20:00:04.690Z,83.42
2022-12-22T20:04:34.038Z,83.75
2022-12-22T20:08:00.231Z,84.73
2022-12-22T20:10:35.963Z,84.79
2022-12-22T20:13:15.352Z,84.70
2022-12-22T20:15:48.150Z,85.36
2022-12-22T20:18:20.099Z,85.95
2022-12-22T20:20:57.516Z,86.41
2022-12-22T20:23:30.387Z,86.68
2022-12-22T20:26:06.027Z,86.23
2022-12-22T20:28:36.936Z,86.65
2022-12-22T20:31:06.186Z,87.05
2022-12-22T20:33:34.812Z,87.77
2022-12-22T20:40:33.891Z,88.93
2022-12-22T20:43:01.746Z,88.49
2022-12-22T20:45:31.428Z,88.50
2022-12-22T20:47:59.817Z,88.32
2022-12-22T20:50:30.754Z,87.74
2022-12-22T20:52:59.085Z,87.82
2022-12-22T20:55:28.499Z,88.07
2022-12-22T20:57:56.673Z,87.54
2022-12-22T21:00:27.847Z,87.08
2022-12-22T21:02:55.646Z,86.82
2022-12-22T21:05:25.813Z,87.13
2022-12-22T21:07:52.999Z,87.46
2022-12-22T21:10:24.480Z,86.68
2022-12-22T21:12:55.737Z,86.98
2022-12-22T21:15:26.364Z,86.91
2022-12-22T21:17:58.774Z,86.93
2022-12-22T21:20:33.854Z,87.62
2022-12-22T21:23:00.895Z,87.86
2022-12-22T21:25:27.804Z,88.01
2022-12-22T21:27:56.882Z,87.72
2022-12-22T21:30:26.547Z,88.47
2022-12-22T21:32:56.921Z,88.01
2022-12-22T21:35:27.550Z,88.70
2022-12-22T21:37:57.815Z,89.14
2022-12-22T21:40:27.580Z,89.72
2022-12-22T21:42:56.635Z,90.57
2022-12-22T21:45:28.063Z,89.97
2022-12-22T21:47:55.372Z,89.93
2022-12-22T21:50:26.270Z,89.69
2022-12-22T21:52:53.660Z,90.42
2022-12-22T21:55:26.117Z,90.53
2022-12-22T21:57:53.511Z,91.37
2022-12-22T22:00:27.378Z,92.60
2022-12-22T22:02:56.345Z,93.59
2022-12-22T22:05:29.013Z,93.19
2022-12-22T22:07:58.342Z,93.78
2022-12-22T22:10:29.634Z,93.92
2022-12-22T22:12:56.970Z,94.14
2022-12-22T22:16:11.148Z,94.29
2022-12-22T22:18:39.768Z,94.20
2022-12-22T22:21:10.868Z,92.57
2022-12-22T22:23:38.189Z,92.76
2022-12-22T22:26:06.385Z,92.65
2022-12-22T22:28:35.962Z,91.76
2022-12-22T22:31:12.679Z,91.78
2022-12-22T22:33:39.704Z,91.02
2022-12-22T22:36:07.882Z,90.69
2022-12-22T22:38:35.537Z,90.21
2022-12-22T22:41:02.804Z,88.67
2022-12-22T22:43:29.765Z,87.94
2022-12-22T22:45:56.605Z,89.22
2022-12-22T22:48:24.887Z,89.26
2022-12-22T22:50:51.663Z,89.64
2022-12-22T22:53:18.848Z,89.17
2022-12-22T22:55:45.632Z,89.31
2022-12-22T22:58:12.675Z,89.13
2022-12-22T23:00:40.122Z,89.38
2022-12-22T23:03:07.065Z,89.73
2022-12-22T23:05:36.340Z,90.44
2022-12-22T23:08:03.507Z,90.96
2022-12-22T23:10:32.648Z,90.77
2022-12-22T23:13:01.879Z,90.81
2022-12-22T23:15:28.636Z,91.08
2022-12-22T23:17:55.592Z,90.80
2022-12-22T23:20:22.393Z,91.44
2022-12-22T23:22:50.759Z,91.78
2022-12-22T23:25:18.329Z,91.60
2022-12-22T23:27:45.383Z,91.83
2022-12-22T23:30:13.712Z,92.20
2022-12-22T23:32:40.726Z,92.98
2022-12-22T23:35:08.377Z,93.14
2022-12-22T23:37:35.343Z,93.35
2022-12-22T23:40:41.895Z,93.73
2022-12-22T23:42:56.596Z,93.94
2022-12-22T23:45:24.091Z,94.46
2022-12-22T23:47:50.820Z,94.06
2022-12-22T23:50:17.785Z,94.40
2022-12-22T23:52:49.149Z,94.77
2022-12-22T23:55:18.389Z,95.07
2022-12-22T23:57:45.835Z,95.16
